Tiempo atmosférico en la estación meteorológica de Pola de Lena, Asturias (370 m.)



Fecha
DESCASC
Temp. máxima en grados centígrados (hora)
DESCASC
Temp. mínima en grados centígrados (hora)
DESCASC
Temp. media en grados centígrados
DESCASC
Racha de viento máxima en m/sg (hora)
DESCASC
Velocidad máxima media en intervalos de 10 minutos(hora)
DESCASC
Precipitaciones diarias en mm
DESCASC
Precipitaciones de 00:00 a 06:00 en mm
DESCASC
Precipitaciones de 06:00 a 12:00 en mm
DESCASC
Precipitaciones de 12:00 a 18:00 en mm
DESCASC
Precipitaciones de 18:00 a 24:00 en mm
DESCASC

Gráficas

Temp. máximas Temp. mínimas Temp. medias Precipitaciones Rachas de viento máximas Velocidades máximas media en intervalos de 10 minutos

Datos horarios

Fecha y hora oficial Temperatura (ºC) Velocidad del viento (km/h) Dirección del viento Racha (km/h) Dirección de racha Precipitación (mm) Presión (hPa) Tendencia (hPa) Humedad (%)
2020-03-28 23:00:00 7.5 0 Calma 2 Sudoeste 0 -- -- 92
2020-03-28 22:00:00 8 2 Oeste 7 Sudoeste 0 -- -- 87
2020-03-28 21:00:00 10.1 4 Oeste 10 Oeste 0 -- -- 81
2020-03-28 20:00:00 10.8 5 Noroeste 11 Nordeste 0 -- -- 78
2020-03-28 19:00:00 12.7 4 Norte 15 Norte 0 -- -- 70
2020-03-28 18:00:00 14.1 5 Norte 22 Norte 0 -- -- 63
2020-03-28 17:00:00 15 12 Norte 26 Norte 0 -- -- 60
2020-03-28 16:00:00 16 13 Norte 26 Norte 0 -- -- 51
2020-03-28 15:00:00 16.1 12 Norte 28 Norte 0 -- -- 46
2020-03-28 14:00:00 15.6 15 Norte 26 Norte 0 -- -- 47
2020-03-28 13:00:00 15.2 15 Norte 23 Norte 0 -- -- 48
2020-03-28 12:00:00 14.2 12 Norte 22 Norte 0 -- -- 47
2020-03-28 11:00:00 11.2 6 Norte 9 Norte 0 -- -- 50
2020-03-28 10:00:00 7.4 3 Norte 5 Nordeste 0 -- -- 75
2020-03-28 09:00:00 3.4 0 Calma 5 Sudoeste 0 -- -- 90
2020-03-28 08:00:00 0.1 0 Calma 3 Oeste 0 -- -- 95
2020-03-28 07:00:00 0.1 2 Sudoeste 6 Sur 0 -- -- 96
2020-03-28 06:00:00 0.3 0 Calma 3 Oeste 0 -- -- 95
2020-03-28 05:00:00 0.8 0 Calma 8 Sudeste 0 -- -- 95
2020-03-28 04:00:00 1 0 Calma 4 Sudeste 0 -- -- 94
2020-03-28 03:00:00 1.7 0 Calma 3 Sudoeste 0 -- -- 93
2020-03-28 02:00:00 2.5 0 Calma 9 Sudoeste 0 -- -- 92
2020-03-28 01:00:00 3.3 6 Sur 12 Sudeste 0 -- -- 92
2020-03-28 00:00:00 3.6 0 Calma 5 Sudeste 0 -- -- 91
2020-03-27 23:00:00 4.3 0 Calma 4 Sudeste 0 -- -- 88
2020-03-27 22:00:00 5.6 2 Sudoeste 6 Sudeste 0 -- -- 85
2020-03-27 21:00:00 6.7 0 Calma 6 Sur 0 -- -- 82
2020-03-27 20:00:00 8.7 4 Sudoeste 14 Sudoeste 0 -- -- 74
2020-03-27 19:00:00 10.8 3 Oeste 19 Norte 0 -- -- 66
2020-03-27 18:00:00 12.1 12 Norte 23 Norte 0 -- -- 58
2020-03-27 17:00:00 12.7 12 Norte 24 Norte 0 -- -- 54
2020-03-27 16:00:00 12.5 12 Norte 26 Norte 0 -- -- 54
2020-03-27 15:00:00 13.2 12 Norte 24 Norte 0 -- -- 47
2020-03-27 14:00:00 12.8 14 Norte 25 Norte 0 -- -- 45
2020-03-27 13:00:00 11.7 13 Norte 30 Norte 0 -- -- 51
2020-03-27 12:00:00 10.4 15 Norte 23 Norte 0 -- -- 52
2020-03-27 11:00:00 9.3 6 Norte 10 Noroeste 0 -- -- 61
2020-03-27 10:00:00 6.5 4 Norte 6 Norte 0 -- -- 75
2020-03-27 09:00:00 3.2 0 Calma 6 Sudeste 0 -- -- 90
2020-03-27 08:00:00 0.7 0 Calma 3 Norte 0 -- -- 95
2020-03-27 07:00:00 0.8 0 Calma 5 Sur 0 -- -- 95
2020-03-27 06:00:00 0.8 0 Calma 3 Oeste 0 -- -- 94
2020-03-27 05:00:00 1.8 0 Calma 8 Sur 0 -- -- 90
2020-03-27 04:00:00 3 3 Sur 7 Sur 0 -- -- 88
2020-03-27 03:00:00 3.9 2 Oeste 5 Noroeste 0 -- -- 85
2020-03-27 02:00:00 5.9 3 Noroeste 9 Norte 0 -- -- 79
2020-03-27 01:00:00 6.1 3 Noroeste 10 Noroeste 0 -- -- 79
2020-03-27 00:00:00 6.7 5 Norte 15 Norte 0 -- -- 77
2020-03-26 23:00:00 6.7 3 Oeste 12 Norte 0 -- -- 77
2020-03-26 22:00:00 6.4 3 Noroeste 10 Oeste 0 -- -- 77
2020-03-26 21:00:00 6.8 0 Calma 9 Norte 0 -- -- 71
2020-03-26 20:00:00 8.9 5 Norte 23 Norte 0 -- -- 62
2020-03-26 19:00:00 9.7 10 Norte 21 Norte 0 -- -- 59
2020-03-26 18:00:00 10.4 12 Norte 24 Norte 0 -- -- 59
2020-03-26 17:00:00 11.1 13 Norte 27 Norte 0 -- -- 57
2020-03-26 16:00:00 11.8 13 Norte 26 Norte 0 -- -- 51
2020-03-26 15:00:00 12.6 9 Norte 24 Norte 0 -- -- 49
2020-03-26 14:00:00 11.8 8 Norte 22 Norte 0 -- -- 54
2020-03-26 13:00:00 11.2 11 Norte 21 Norte 0 -- -- 56
2020-03-26 12:00:00 10.3 8 Noroeste 21 Norte 0 -- -- 60
2020-03-26 11:00:00 9.5 8 Norte 19 Norte 0 -- -- 64
2020-03-26 10:00:00 7.9 3 Este 11 Sudeste 0 -- -- 74
2020-03-26 09:00:00 6.8 6 Este 13 Este 0 -- -- 77
2020-03-26 08:00:00 4.1 2 Sudeste 9 Sudeste 0 -- -- 85
2020-03-26 07:00:00 3.7 3 Sudeste 9 Sudeste 0 -- -- 87
2020-03-26 06:00:00 4 4 Sudeste 7 Sudeste 0 -- -- 90
2020-03-26 05:00:00 3.5 2 Sudoeste 4 Sudoeste 0 -- -- 89
2020-03-26 04:00:00 5.1 2 Sur 7 Sudeste 0 -- -- 90
2020-03-26 03:00:00 4.6 0 Calma 9 Sur 0 -- -- 95
2020-03-26 02:00:00 4.9 3 Sudeste 6 Sudeste 0 -- -- 97
2020-03-26 01:00:00 4.8 3 Noroeste 6 Sur 0 -- -- 95
2020-03-26 00:00:00 5.6 2 Sur 6 Sudeste 0 -- -- 93
2020-03-25 23:00:00 6.9 0 Calma 4 Sudeste 0 -- -- 91
2020-03-25 22:00:00 7.5 0 Calma 6 Oeste 0 -- -- 88
2020-03-25 21:00:00 9 2 Oeste 11 Oeste 0 -- -- 84
2020-03-25 20:00:00 11 5 Oeste 16 Norte 0 -- -- 77
2020-03-25 19:00:00 13.3 5 Noroeste 21 Norte 0 -- -- 66
2020-03-25 18:00:00 14.9 10 Norte 22 Norte 0 -- -- 60
2020-03-25 17:00:00 16.5 15 Norte 27 Norte 0 -- -- 56
2020-03-25 16:00:00 17.8 14 Norte 27 Norte 0 -- -- 49
2020-03-25 15:00:00 17.9 15 Norte 30 Norte 0 -- -- 43
2020-03-25 14:00:00 17.7 12 Norte 26 Norte 0 -- -- 48
2020-03-25 13:00:00 16.9 10 Norte 24 Norte 0 -- -- 56
2020-03-25 12:00:00 16.4 13 Norte 18 Norte 0 -- -- 60
2020-03-25 11:00:00 13.7 6 Norte 9 Norte 0 -- -- 77
2020-03-25 10:00:00 10.8 0 Calma 6 Norte 0 -- -- 85
2020-03-25 09:00:00 7.3 0 Calma 3 Norte 0 -- -- 99
2020-03-25 08:00:00 5.3 0 Calma 6 Sur 0 -- -- 98
2020-03-25 07:00:00 5.2 0 Calma 3 Oeste 0 -- -- 98
2020-03-25 06:00:00 5.5 0 Calma 3 Oeste 0 -- -- 97
2020-03-25 05:00:00 6.2 2 Sudoeste 5 Sur 0 -- -- 97
2020-03-25 04:00:00 6.9 0 Calma 9 Sudeste 0 -- -- 96
2020-03-25 03:00:00 7.6 0 Calma 7 Sudeste 0 -- -- 94
2020-03-25 02:00:00 8.7 5 Sur 9 Sur 0 -- -- 94
2020-03-25 01:00:00 9.5 3 Sur 7 Sur 0 -- -- 93
2020-03-25 00:00:00 9.6 0 Calma 3 Oeste 0 -- -- 90
2020-03-24 23:00:00 10.1 0 Calma 3 Sudoeste 0 -- -- 90
2020-03-24 22:00:00 10.7 0 Calma 7 Sudeste 0 -- -- 88
2020-03-24 21:00:00 11.7 3 Sur 7 Sudeste 0 -- -- 83
2020-03-24 20:00:00 13.4 2 Sudoeste 10 Oeste 0 -- -- 75
2020-03-24 19:00:00 15.7 4 Oeste 12 Norte 0 -- -- 70
2020-03-24 18:00:00 17 5 Noroeste 25 Norte 0 -- -- 67
2020-03-24 17:00:00 18.2 11 Norte 30 Norte 0 -- -- 63
2020-03-24 16:00:00 18.8 12 Norte 26 Norte 0 -- -- 56
2020-03-24 15:00:00 18.9 10 Norte 25 Norte 0 -- -- 52
2020-03-24 14:00:00 18.7 13 Norte 23 Norte 0 -- -- 52
2020-03-24 13:00:00 18.5 10 Norte 22 Norte 0 -- -- 54
2020-03-24 12:00:00 15.6 6 Norte 14 Norte 0 -- -- 66
2020-03-24 11:00:00 12.2 5 Norte 10 Norte 0 -- -- 83
2020-03-24 10:00:00 10 3 Nordeste 7 Este 0 -- -- 94
2020-03-24 09:00:00 8.7 0 Calma 7 Norte 0 -- -- 96
2020-03-24 08:00:00 8.5 3 Norte 6 Oeste 0 -- -- 96
2020-03-24 07:00:00 8.7 0 Calma 6 Norte 0 -- -- 96
2020-03-24 06:00:00 8.9 0 Calma 4 Norte 0 -- -- 96
2020-03-24 05:00:00 9 0 Calma 5 Norte 0 -- -- 94
2020-03-24 04:00:00 9.7 2 Norte 5 Norte 0 -- -- 93
2020-03-24 03:00:00 10.2 0 Calma 3 Norte 0 -- -- 92
2020-03-24 02:00:00 10.4 0 Calma 4 Noroeste 0 -- -- 91
2020-03-24 01:00:00 10.7 0 Calma 5 Norte 0 -- -- 91
2020-03-24 00:00:00 10.8 0 Calma 5 Norte 0 -- -- 90
2020-03-23 23:00:00 10.9 2 Noroeste 9 Noroeste 0 -- -- 89
2020-03-23 22:00:00 11.1 2 Noroeste 8 Noroeste 0 -- -- 89
2020-03-23 21:00:00 11.2 3 Norte 15 Norte 0 -- -- 89
2020-03-23 20:00:00 11.8 5 Norte 12 Norte 0 -- -- 85
2020-03-23 19:00:00 12.1 4 Norte 12 Norte 0 -- -- 82
2020-03-23 18:00:00 12.3 6 Nordeste 19 Norte 0 -- -- 82
2020-03-23 17:00:00 13 12 Norte 23 Norte 0 -- -- 79
2020-03-23 16:00:00 13.9 13 Norte 28 Norte 0 -- -- 75
2020-03-23 15:00:00 14.8 15 Norte 28 Norte 0 -- -- 70
2020-03-23 14:00:00 15.2 13 Norte 28 Norte 0 -- -- 66
2020-03-23 13:00:00 14.8 13 Norte 23 Norte 0 -- -- 64
2020-03-23 12:00:00 14.2 7 Norte 16 Norte 0 -- -- 63
2020-03-23 11:00:00 13.2 5 Nordeste 8 Nordeste 0 -- -- 68
2020-03-23 10:00:00 10.9 0 Calma 5 Norte 0 -- -- 83
2020-03-23 09:00:00 9.7 3 Norte 6 Norte 0 -- -- 89
2020-03-23 08:00:00 9 0 Calma 4 Sudeste 0 -- -- 90
2020-03-23 07:00:00 8.9 0 Calma 4 Sudeste 0 -- -- 88
2020-03-23 06:00:00 8.9 0 Calma 4 Sudeste 0 -- -- 93
2020-03-23 05:00:00 8.7 0 Calma 3 Sudoeste 0 -- -- 97
2020-03-23 04:00:00 8.5 0 Calma 4 Sudoeste 0 -- -- 96
2020-03-23 03:00:00 8.5 0 Calma 4 Oeste 0 -- -- 96
2020-03-23 02:00:00 9.6 3 Oeste 9 Noroeste 0 -- -- 92
2020-03-23 01:00:00 10.8 3 Noroeste 6 Norte 0 -- -- 91
2020-03-23 00:00:00 11 4 Sudoeste 16 Sudoeste 0 -- -- 90
2020-03-22 23:00:00 11 3 Noroeste 10 Noroeste 0 -- -- 89
2020-03-22 22:00:00 11.3 4 Noroeste 12 Norte 0 -- -- 88
2020-03-22 21:00:00 11.4 4 Noroeste 12 Noroeste 0 -- -- 87
2020-03-22 20:00:00 11.9 5 Norte 19 Norte 0 -- -- 84
2020-03-22 19:00:00 12.6 10 Norte 17 Norte 0 -- -- 82
2020-03-22 18:00:00 13.4 11 Norte 23 Norte 0 -- -- 79
2020-03-22 17:00:00 14.1 15 Norte 28 Norte 0 -- -- 76
2020-03-22 16:00:00 15.9 12 Norte 24 Norte 0 -- -- 68
2020-03-22 15:00:00 15.8 15 Norte 26 Norte 0 -- -- 69
2020-03-22 14:00:00 15.3 12 Norte 23 Norte 0 -- -- 71
2020-03-22 13:00:00 14.8 8 Norte 17 Noroeste 0 -- -- 74
2020-03-22 12:00:00 13.5 9 Norte 13 Norte 0 -- -- 82
2020-03-22 11:00:00 11.3 4 Norte 8 Norte 0 -- -- 89
2020-03-22 10:00:00 10.8 2 Norte 8 Norte 0 -- -- 94
2020-03-22 09:00:00 9.8 3 Este 8 Este 0 -- -- 98
2020-03-22 08:00:00 9.6 3 Sudeste 6 Este 0 -- -- 96
2020-03-22 07:00:00 10 0 Calma 5 Nordeste 0 -- -- 94
2020-03-22 06:00:00 10.2 3 Nordeste 6 Nordeste 0 -- -- 93
2020-03-22 05:00:00 10.3 0 Calma 2 Sur 0 -- -- 93
2020-03-22 04:00:00 10.4 0 Calma 6 Este 0 -- -- 92
2020-03-22 03:00:00 10.6 3 Sudeste 6 Sudeste 0 -- -- 93
2020-03-22 02:00:00 10.7 0 Calma 4 Sudoeste 0 -- -- 95
2020-03-22 01:00:00 10.6 0 Calma 7 Nordeste 0 -- -- 95
2020-03-22 00:00:00 10.5 3 Nordeste 12 Nordeste 0 -- -- 96
2020-03-21 23:00:00 10.3 2 Norte 9 Noroeste 0 -- -- 95
2020-03-21 22:00:00 10.8 2 Sudoeste 5 Sudoeste 0 -- -- 95
2020-03-21 21:00:00 10.7 0 Calma 5 Oeste 0 -- -- 94
2020-03-21 20:00:00 11.7 3 Noroeste 6 Noroeste 0 -- -- 90
2020-03-21 19:00:00 12.4 0 Calma 10 Este 0 -- -- 86
2020-03-21 18:00:00 13.3 3 Este 22 Sur 0 -- -- 79
2020-03-21 17:00:00 15.4 5 Noroeste 27 Norte 0.2 -- -- 74
2020-03-21 16:00:00 17.7 14 Norte 28 Norte 0 -- -- 62
2020-03-21 15:00:00 17.5 13 Norte 26 Norte 0 -- -- 64
2020-03-21 14:00:00 19 15 Norte 28 Norte 0 -- -- 55
2020-03-21 13:00:00 19 8 Norte 17 Norte 0 -- -- 54
2020-03-21 12:00:00 18.5 5 Este 15 Este 0 -- -- 50
2020-03-21 11:00:00 17.2 8 Sudeste 22 Sudeste 0 -- -- 56
2020-03-21 10:00:00 15.5 8 Sudeste 24 Sudeste 0 -- -- 62
2020-03-21 09:00:00 13.4 5 Sudeste 20 Sudeste 0 -- -- 70
2020-03-21 08:00:00 10.9 8 Sudeste 15 Sudeste 0 -- -- 81
2020-03-21 07:00:00 8.7 0 Calma 4 Oeste 0 -- -- 97
2020-03-21 06:00:00 9.6 2 Oeste 4 Oeste 0 -- -- 96
2020-03-21 05:00:00 10.2 0 Calma 4 Sudoeste 0 -- -- 96
2020-03-21 04:00:00 10.6 0 Calma 6 Sudeste 0 -- -- 95
2020-03-21 03:00:00 10.7 3 Sudeste 7 Sudeste 0 -- -- 95
2020-03-21 02:00:00 10.9 0 Calma 5 Sudeste 0 -- -- 94
2020-03-21 01:00:00 11.3 2 Oeste 4 Sudoeste 0 -- -- 95
2020-03-21 00:00:00 11.8 0 Calma 7 Oeste 0 -- -- 92
2020-03-20 23:00:00 12.2 4 Sur 8 Sudeste 0 -- -- 91
2020-03-20 22:00:00 12.5 2 Noroeste 4 Sudoeste 0 -- -- 91
2020-03-20 21:00:00 13.3 0 Calma 6 Sudeste 0 -- -- 85
2020-03-20 20:00:00 14.5 5 Sur 14 Sudoeste 0 -- -- 70
2020-03-20 19:00:00 16.5 7 Sur 15 Sudeste 0 -- -- 59
2020-03-20 18:00:00 17.1 7 Sur 14 Sudeste 0 -- -- 57
2020-03-20 17:00:00 17.4 6 Sudeste 17 Sur 0 -- -- 56
2020-03-20 16:00:00 17.7 10 Sudeste 27 Sur 0 -- -- 56
2020-03-20 15:00:00 17.5 11 Sudeste 23 Sudeste 0 -- -- 56
2020-03-20 14:00:00 16.7 8 Sudeste 21 Sudeste 0 -- -- 61
2020-03-20 13:00:00 16.3 10 Sudeste 26 Sudeste 0 -- -- 63
2020-03-20 12:00:00 15.7 15 Sudeste 32 Sudeste 0 -- -- 67
2020-03-20 11:00:00 13 8 Sudeste 21 Sudeste 0 -- -- 87
2020-03-20 10:00:00 9.9 0 Calma 5 Norte 0 -- -- 100
2020-03-20 09:00:00 9.3 0 Calma 7 Norte 0 -- -- 100
2020-03-20 08:00:00 9 0 Calma 2 Oeste 0 -- -- 100
2020-03-20 07:00:00 9 0 Calma 5 Sudeste 0 -- -- 100
2020-03-20 06:00:00 9.1 2 Sudeste 6 Sudeste 0 -- -- 100
2020-03-20 05:00:00 9.3 2 Sudeste 5 Sudeste 0 -- -- 100
2020-03-20 04:00:00 9.5 0 Calma 4 Sur 0 -- -- 100
2020-03-20 03:00:00 9.6 3 Sur 5 Sur 0 -- -- 100
2020-03-20 02:00:00 9.6 2 Sudeste 4 Sudeste 0 -- -- 100
2020-03-20 01:00:00 9.3 0 Calma 4 Oeste 0 -- -- 99
2020-03-20 00:00:00 9.8 0 Calma 4 Oeste 0 -- -- 97
2020-03-19 23:00:00 10.6 2 Sur 6 Sur 0 -- -- 97
2020-03-19 22:00:00 11.3 2 Sur 8 Sudeste 0 -- -- 96
2020-03-19 21:00:00 12.2 0 Calma 5 Sudoeste 0 -- -- 95
2020-03-19 20:00:00 13 5 Sudeste 10 Sudeste 0 -- -- 94
2020-03-19 19:00:00 13.8 5 Sur 12 Sur 0 -- -- 94
2020-03-19 18:00:00 14.3 4 Sur 19 Sur 1.2 -- -- 92
2020-03-19 17:00:00 16 6 Sudeste 16 Sudeste 0.8 -- -- 84
2020-03-19 16:00:00 19.7 9 Norte 24 Norte 0 -- -- 55
2020-03-19 15:00:00 20.8 6 Norte 17 Sudoeste 0 -- -- 57
2020-03-19 14:00:00 20 7 Nordeste 18 Nordeste 0 -- -- 62
2020-03-19 13:00:00 17.8 9 Norte 15 Norte 0 -- -- 72
2020-03-19 12:00:00 15.3 7 Norte 12 Norte 0 -- -- 78
2020-03-19 11:00:00 12.3 6 Norte 10 Norte 0 -- -- 87
2020-03-19 10:00:00 9.7 2 Norte 6 Norte 0 -- -- 96
2020-03-19 09:00:00 7.3 0 Calma 2 Oeste 0 -- -- 100
2020-03-19 08:00:00 6.2 0 Calma 3 Sudoeste 0 -- -- 99
2020-03-19 07:00:00 6.1 0 Calma 2 Oeste 0 -- -- 99
2020-03-19 06:00:00 6.3 0 Calma 2 Oeste 0 -- -- 98
2020-03-19 05:00:00 6.7 0 Calma 3 Este 0 -- -- 98
2020-03-19 04:00:00 7.2 0 Calma 3 Oeste 0 -- -- 98
2020-03-19 03:00:00 7.5 0 Calma 3 Oeste 0 -- -- 97
2020-03-19 02:00:00 7.9 0 Calma 3 Sudeste 0 -- -- 96
2020-03-19 01:00:00 8.3 0 Calma 3 Norte 0 -- -- 95
2020-03-19 00:00:00 9.1 0 Calma 3 Sudeste 0 -- -- 94
2020-03-18 23:00:00 9.8 0 Calma 5 Sur 0 -- -- 92
2020-03-18 22:00:00 10.9 0 Calma 5 Sudeste 0 -- -- 89
2020-03-18 21:00:00 12.2 2 Sudoeste 4 Sudoeste 0 -- -- 86
2020-03-18 20:00:00 13.9 4 Oeste 9 Oeste 0 -- -- 81
2020-03-18 19:00:00 17 6 Sudoeste 13 Sudoeste 0 -- -- 67
2020-03-18 18:00:00 18.1 4 Norte 23 Norte 0 -- -- 58
2020-03-18 17:00:00 19.1 12 Norte 27 Norte 0 -- -- 58
2020-03-18 16:00:00 20.2 17 Norte 30 Norte 0 -- -- 55
2020-03-18 15:00:00 20.7 13 Norte 21 Norte 0 -- -- 51
2020-03-18 14:00:00 20.1 10 Norte 18 Norte 0 -- -- 49
2020-03-18 13:00:00 18.4 9 Norte 16 Norte 0 -- -- 55
2020-03-18 12:00:00 15.1 5 Norte 8 Norte 0 -- -- 71
2020-03-18 11:00:00 10.5 0 Calma 4 Nordeste 0 -- -- 100
2020-03-18 10:00:00 6.6 0 Calma 3 Norte 0 -- -- 100
2020-03-18 09:00:00 4.7 0 Calma 5 Sur 0 -- -- 100
2020-03-18 08:00:00 4.7 0 Calma 5 Sur 0 -- -- 100
2020-03-18 07:00:00 5.2 0 Calma 4 Oeste 0 -- -- 100
2020-03-18 06:00:00 5.4 2 Oeste 4 Oeste 0 -- -- 100
2020-03-18 05:00:00 5.2 0 Calma 2 Sudeste 0 -- -- 100
2020-03-18 04:00:00 4.5 0 Calma 2 Sudeste 0 -- -- 100
2020-03-18 03:00:00 4.5 0 Calma 4 Sudoeste 0 -- -- 99
2020-03-18 02:00:00 4.9 0 Calma 4 Oeste 0 -- -- 99
2020-03-18 01:00:00 5.5 0 Calma 4 Sudeste 0 -- -- 98
2020-03-18 00:00:00 6.2 2 Oeste 5 Sudoeste 0 -- -- 97
2020-03-17 23:00:00 7.1 2 Sudoeste 13 Sudeste 0 -- -- 96
2020-03-17 22:00:00 7.8 2 Sur 4 Sudeste 0 -- -- 95
2020-03-17 21:00:00 9 2 Sur 8 Sudoeste 0 -- -- 92
2020-03-17 20:00:00 10.8 4 Sudoeste 12 Sudoeste 0 -- -- 87
2020-03-17 19:00:00 11.7 2 Noroeste 10 Noroeste 0 -- -- 84
2020-03-17 18:00:00 12.3 7 Norte 17 Norte 0 -- -- 80
2020-03-17 17:00:00 12.9 12 Norte 26 Norte 0 -- -- 77
2020-03-17 16:00:00 14.2 9 Norte 20 Norte 0 -- -- 69
2020-03-17 15:00:00 13.4 4 Noroeste 15 Norte 0 -- -- 68
2020-03-17 14:00:00 12.8 8 Norte 15 Norte 0 -- -- 68
2020-03-17 13:00:00 12.6 5 Norte 10 Norte 0 -- -- 69
2020-03-17 12:00:00 11.5 5 Este 11 Sudeste 0 -- -- 72
2020-03-17 11:00:00 9.4 6 Sudeste 13 Sur 0 -- -- 76
2020-03-17 10:00:00 7.9 6 Sudeste 13 Sudeste 0 -- -- 87
2020-03-17 09:00:00 6.4 4 Sudeste 14 Sudeste 0 -- -- 95
2020-03-17 08:00:00 5.7 5 Sudeste 9 Este 0 -- -- 97
2020-03-17 07:00:00 5.5 2 Sudeste 5 Sur 0 -- -- 99
2020-03-17 06:00:00 5.3 0 Calma 6 Sur 0 -- -- 99
2020-03-17 05:00:00 5 3 Sur 4 Sudeste 0 -- -- 99
2020-03-17 04:00:00 5.6 0 Calma 2 Este 0 -- -- 99
2020-03-17 03:00:00 5.6 2 Norte 4 Este 0 -- -- 99
2020-03-17 02:00:00 5.8 0 Calma 3 Oeste 0 -- -- 99
2020-03-17 01:00:00 5.9 3 Oeste 6 Oeste 0.2 -- -- 98
2020-03-17 00:00:00 5.9 3 Noroeste 10 Sudoeste 0 -- -- 97
2020-03-16 23:00:00 6.3 4 Oeste 8 Oeste 0.6 -- -- 96
2020-03-16 22:00:00 6.5 3 Norte 9 Sur 0 -- -- 94
2020-03-16 21:00:00 6.8 3 Noroeste 17 Norte 0 -- -- 91
2020-03-16 20:00:00 7.4 9 Nordeste 19 Norte 0 -- -- 84
2020-03-16 19:00:00 7 7 Norte 12 Norte 0 -- -- 92
2020-03-16 18:00:00 6.7 3 Oeste 18 Sudoeste 1 -- -- 93
2020-03-16 17:00:00 6.8 8 Norte 24 Norte 1.4 -- -- 88
2020-03-16 16:00:00 8 17 Norte 36 Norte 0.2 -- -- 81
2020-03-16 15:00:00 7.8 8 Norte 21 Norte 0.2 -- -- 87
2020-03-16 14:00:00 7.3 10 Norte 27 Norte 0.4 -- -- 87
2020-03-16 13:00:00 6.7 8 Norte 23 Norte 1.2 -- -- 92
2020-03-16 12:00:00 6.1 7 Norte 14 Oeste 1.2 -- -- 94
2020-03-16 11:00:00 5.3 12 Norte 18 Norte 0.8 -- -- 95
2020-03-16 10:00:00 4 4 Norte 12 Sudoeste 1.2 -- -- 100
2020-03-16 09:00:00 3.2 4 Noroeste 10 Noroeste 1.4 -- -- 98
2020-03-16 08:00:00 3.3 3 Norte 22 Oeste 0.8 -- -- 96
2020-03-16 07:00:00 3 3 Nordeste 12 Norte 0.2 -- -- 99
2020-03-16 06:00:00 2.8 3 Noroeste 10 Nordeste 2 -- -- 99
2020-03-16 05:00:00 2.2 4 Sudeste 6 Sudeste 0.2 -- -- 100
2020-03-16 04:00:00 2 2 Sudeste 5 Sudeste 0.2 -- -- 99
2020-03-16 03:00:00 1.6 0 Calma 2 Este 0.6 -- -- 99
2020-03-16 02:00:00 1.4 0 Calma 5 Sur 1.4 -- -- 98
2020-03-16 01:00:00 1.7 0 Calma 3 Oeste 1.6 -- -- 98
2020-03-16 00:00:00 2.2 0 Calma 5 Sudoeste 1.8 -- -- 97
2020-03-15 23:00:00 2.6 2 Oeste 6 Oeste 2 -- -- 96
2020-03-15 22:00:00 3.1 2 Oeste 6 Nordeste 2.8 -- -- 94
2020-03-15 21:00:00 4 6 Norte 13 Norte 1.6 -- -- 94
2020-03-15 20:00:00 4.7 3 Noroeste 14 Noroeste 1.4 -- -- 94
2020-03-15 19:00:00 5.3 3 Norte 21 Norte 1.6 -- -- 93
2020-03-15 18:00:00 6.4 11 Norte 25 Norte 1.4 -- -- 93
2020-03-15 17:00:00 7.4 12 Norte 25 Norte 0.4 -- -- 93
2020-03-15 16:00:00 8.9 13 Norte 44 Norte 0.4 -- -- 90
2020-03-15 15:00:00 14.2 6 Norte 26 Norte 0 -- -- 65
2020-03-15 14:00:00 14.1 13 Norte 29 Norte 0 -- -- 69
2020-03-15 13:00:00 12.9 11 Norte 24 Norte 0 -- -- 70
2020-03-15 12:00:00 11.7 16 Norte 27 Norte 0 -- -- 76
2020-03-15 11:00:00 10.5 15 Norte 26 Norte 0 -- -- 84
2020-03-15 10:00:00 7.8 5 Norte 9 Norte 0 -- -- 91
2020-03-15 09:00:00 3.9 3 Sudeste 7 Sudeste 0 -- -- 100
2020-03-15 08:00:00 2 0 Calma 8 Oeste 0 -- -- 100
2020-03-15 07:00:00 2.5 3 Oeste 7 Noroeste 0 -- -- 100
2020-03-15 06:00:00 2.3 0 Calma 9 Sudeste 0 -- -- 99
2020-03-15 05:00:00 2.5 0 Calma 5 Oeste 0 -- -- 99
2020-03-15 04:00:00 2.9 2 Sudoeste 3 Sudoeste 0 -- -- 98
2020-03-15 03:00:00 3.3 0 Calma 3 Sudoeste 0 -- -- 98
2020-03-15 02:00:00 3.8 0 Calma 3 Oeste 0 -- -- 97
2020-03-15 01:00:00 4.7 0 Calma 4 Sur 0 -- -- 96
2020-03-15 00:00:00 5.4 0 Calma 8 Sudoeste 0 -- -- 94
2020-03-14 23:00:00 6.2 2 Sur 4 Sur 0 -- -- 94
2020-03-14 22:00:00 7.3 2 Oeste 4 Sudoeste 0 -- -- 91
2020-03-14 21:00:00 8.7 0 Calma 9 Sudeste 0 -- -- 86
2020-03-14 20:00:00 10.4 2 Sudoeste 15 Oeste 0 -- -- 81
2020-03-14 19:00:00 13 6 Sudoeste 18 Noroeste 0 -- -- 70
2020-03-14 18:00:00 14.4 6 Norte 19 Norte 0 -- -- 65
2020-03-14 17:00:00 15.7 10 Norte 24 Norte 0 -- -- 59
2020-03-14 16:00:00 16.3 11 Norte 21 Norte 0 -- -- 56
2020-03-14 15:00:00 15.8 9 Norte 19 Norte 0 -- -- 55
2020-03-14 14:00:00 14.8 9 Norte 15 Norte 0 -- -- 57
2020-03-14 13:00:00 13.4 6 Norte 14 Norte 0 -- -- 61
2020-03-14 12:00:00 12.2 5 Norte 9 Norte 0 -- -- 68
2020-03-14 11:00:00 9.8 3 Nordeste 7 Nordeste 0 -- -- 76
2020-03-14 10:00:00 6.9 2 Norte 4 Norte 0 -- -- 83
2020-03-14 09:00:00 4 3 Sudeste 10 Sudeste 0 -- -- 93
2020-03-14 08:00:00 2.4 2 Sudoeste 7 Sudeste 0 -- -- 96
2020-03-14 07:00:00 2.9 3 Sur 7 Sudeste 0 -- -- 94
2020-03-14 06:00:00 4.1 2 Sudoeste 9 Sudeste 0 -- -- 91
2020-03-14 05:00:00 6.3 5 Sudeste 10 Sur 0 -- -- 86
2020-03-14 04:00:00 7.7 6 Sur 12 Sudeste 0 -- -- 82
2020-03-14 03:00:00 7.8 5 Sudeste 9 Sudeste 0 -- -- 84
2020-03-14 02:00:00 7.9 0 Calma 6 Este 0 -- -- 89
2020-03-14 01:00:00 8 3 Sudeste 10 Sur 0 -- -- 91
2020-03-14 00:00:00 8.1 3 Oeste 9 Sudoeste 0 -- -- 92
2020-03-13 23:00:00 9.2 5 Sur 15 Sur 0 -- -- 89
2020-03-13 22:00:00 9.5 4 Sudoeste 11 Sudoeste 0 -- -- 88
2020-03-13 21:00:00 9.5 6 Sur 12 Sudeste 0 -- -- 88
2020-03-13 20:00:00 9.5 4 Oeste 16 Norte 0 -- -- 87
2020-03-13 19:00:00 9.1 5 Oeste 9 Oeste 0 -- -- 90
2020-03-13 18:00:00 11.1 4 Norte 14 Norte 0 -- -- 80
2020-03-13 17:00:00 11.4 4 Norte 18 Norte 0 -- -- 78
2020-03-13 16:00:00 11.5 8 Norte 17 Norte 0 -- -- 77
2020-03-13 15:00:00 11.2 8 Norte 16 Norte 0 -- -- 79
2020-03-13 14:00:00 11 9 Norte 18 Norte 0 -- -- 80
2020-03-13 13:00:00 10.9 8 Norte 18 Norte 0 -- -- 79
2020-03-13 12:00:00 10.1 7 Norte 13 Nordeste 0 -- -- 85
2020-03-13 11:00:00 9 6 Norte 11 Norte 0 -- -- 93
2020-03-13 10:00:00 8.3 5 Norte 9 Norte 0 -- -- 97
2020-03-13 09:00:00 7.7 0 Calma 5 Sudoeste 0 -- -- 99
2020-03-13 08:00:00 7.4 2 Oeste 4 Noroeste 0 -- -- 100
2020-03-13 07:00:00 7.3 0 Calma 5 Norte 0.2 -- -- 100
2020-03-13 06:00:00 7.2 0 Calma 6 Norte 0 -- -- 100
2020-03-13 05:00:00 7.2 3 Norte 12 Norte 0.4 -- -- 100
2020-03-13 04:00:00 7.6 4 Norte 10 Norte 0.4 -- -- 100
2020-03-13 03:00:00 7.8 4 Norte 11 Norte 0.6 -- -- 100
2020-03-13 02:00:00 7.9 3 Norte 11 Noroeste 0.4 -- -- 100
2020-03-13 01:00:00 8 2 Noroeste 7 Norte 0.4 -- -- 100
2020-03-13 00:00:00 8.1 5 Norte 9 Norte 0.4 -- -- 100
2020-03-12 23:00:00 8.2 5 Norte 13 Nordeste 0.2 -- -- 99
2020-03-12 22:00:00 8.6 6 Norte 15 Norte 0.6 -- -- 99
2020-03-12 21:00:00 9 3 Noroeste 12 Noroeste 0.6 -- -- 99
2020-03-12 20:00:00 9.4 5 Noroeste 13 Noroeste 0 -- -- 97
2020-03-12 19:00:00 9.9 4 Norte 13 Sudoeste 0 -- -- 95
2020-03-12 18:00:00 9.9 8 Sudoeste 19 Oeste 0 -- -- 95
2020-03-12 17:00:00 9.9 8 Sudoeste 20 Sudoeste 0 -- -- 95
2020-03-12 16:00:00 9.7 10 Sudoeste 20 Oeste 0.2 -- -- 94
2020-03-12 15:00:00 10.1 8 Norte 26 Norte 0 -- -- 93
2020-03-12 14:00:00 11.5 16 Norte 25 Norte 0 -- -- 90
2020-03-12 13:00:00 12.2 6 Norte 13 Norte 0 -- -- 90
2020-03-12 12:00:00 11.8 5 Norte 13 Norte 0 -- -- 92
2020-03-12 11:00:00 11.3 3 Sur 17 Sudoeste 0 -- -- 95
2020-03-12 10:00:00 10.7 7 Sudoeste 15 Sudoeste 0 -- -- 96
2020-03-12 09:00:00 10.7 6 Sudoeste 15 Oeste 0 -- -- 96
2020-03-12 08:00:00 11.2 4 Noroeste 6 Oeste 0 -- -- 96
2020-03-12 07:00:00 11.3 2 Oeste 4 Noroeste 0 -- -- 95
2020-03-12 06:00:00 11.4 0 Calma 7 Sudeste 0 -- -- 94
2020-03-12 05:00:00 11.3 2 Sudoeste 3 Sudeste 0 -- -- 95
2020-03-12 04:00:00 11.4 0 Calma 4 Sur 0 -- -- 94
2020-03-12 03:00:00 11.4 3 Sur 5 Sudeste 0 -- -- 94
2020-03-12 02:00:00 11.5 0 Calma 10 Sudoeste 0 -- -- 92
2020-03-12 01:00:00 11.6 3 Sudoeste 12 Sudoeste 0 -- -- 92
2020-03-12 00:00:00 12.1 3 Sudoeste 14 Oeste 0 -- -- 89
2020-03-11 23:00:00 12.3 4 Sudoeste 10 Sur 0 -- -- 87
2020-03-11 22:00:00 12.6 3 Sudoeste 17 Sudoeste 0 -- -- 86
2020-03-11 21:00:00 12.8 6 Sudoeste 18 Sudoeste 0 -- -- 85
2020-03-11 20:00:00 14.1 4 Noroeste 18 Noroeste 0 -- -- 79
2020-03-11 19:00:00 15.9 8 Noroeste 22 Norte 0 -- -- 71
2020-03-11 18:00:00 18.3 10 Norte 25 Norte 0 -- -- 65
2020-03-11 17:00:00 19.9 10 Norte 22 Norte 0 -- -- 58
2020-03-11 16:00:00 20.5 13 Norte 25 Noroeste 0 -- -- 52
2020-03-11 15:00:00 20 17 Norte 28 Norte 0 -- -- 55
2020-03-11 14:00:00 19.8 9 Norte 22 Norte 0 -- -- 53
2020-03-11 13:00:00 18.3 9 Norte 17 Norte 0 -- -- 54
2020-03-11 12:00:00 15.4 5 Norte 9 Norte 0 -- -- 66
2020-03-11 11:00:00 12.2 3 Nordeste 6 Nordeste 0 -- -- 69
2020-03-11 10:00:00 8.6 0 Calma 4 Norte 0 -- -- 85
2020-03-11 09:00:00 5.2 0 Calma 8 Sudeste 0 -- -- 99
2020-03-11 08:00:00 3.9 6 Sudeste 12 Sudeste 0 -- -- 99
2020-03-11 07:00:00 3.8 0 Calma 2 Sudoeste 0 -- -- 97
2020-03-11 06:00:00 4.7 0 Calma 13 Sudeste 0 -- -- 95
2020-03-11 05:00:00 5.2 10 Sudeste 16 Sudeste 0 -- -- 98
2020-03-11 04:00:00 5.2 0 Calma 6 Este 0 -- -- 96
2020-03-11 03:00:00 5.9 0 Calma 3 Sur 0 -- -- 95
2020-03-11 02:00:00 6.3 0 Calma 6 Sudoeste 0 -- -- 93
2020-03-11 01:00:00 7.3 0 Calma 14 Sudeste 0 -- -- 93
2020-03-11 00:00:00 7.3 3 Sudeste 8 Sur 0 -- -- 91
2020-03-10 23:00:00 7.9 2 Sur 9 Sudeste 0 -- -- 90
2020-03-10 22:00:00 9.1 0 Calma 5 Noroeste 0 -- -- 85
2020-03-10 21:00:00 11.6 3 Oeste 15 Oeste 0 -- -- 75
2020-03-10 20:00:00 14 8 Oeste 16 Oeste 0 -- -- 70
2020-03-10 19:00:00 15.6 6 Oeste 19 Oeste 0 -- -- 65
2020-03-10 18:00:00 17.2 7 Noroeste 20 Noroeste 0 -- -- 59
2020-03-10 17:00:00 18.4 7 Norte 21 Noroeste 0 -- -- 54
2020-03-10 16:00:00 18.6 7 Norte 23 Norte 0 -- -- 51
2020-03-10 15:00:00 17.7 10 Norte 21 Norte 0 -- -- 56
2020-03-10 14:00:00 16.6 8 Norte 24 Norte 0 -- -- 61
2020-03-10 13:00:00 16.3 9 Norte 21 Norte 0 -- -- 56
2020-03-10 12:00:00 14.6 5 Norte 11 Norte 0 -- -- 63
2020-03-10 11:00:00 11.4 3 Este 9 Noroeste 0 -- -- 70
2020-03-10 10:00:00 8 6 Noroeste 12 Norte 0 -- -- 81
2020-03-10 09:00:00 5.7 2 Norte 6 Norte 0 -- -- 93
2020-03-10 08:00:00 4.1 0 Calma 3 Sur 0 -- -- 94
2020-03-10 07:00:00 4.2 0 Calma 4 Sudeste 0 -- -- 94
2020-03-10 06:00:00 4.3 0 Calma 4 Oeste 0 -- -- 92
2020-03-10 05:00:00 4.4 0 Calma 4 Sur 0 -- -- 93
2020-03-10 04:00:00 4.7 0 Calma 3 Sudoeste 0 -- -- 91
2020-03-10 03:00:00 5 0 Calma 4 Oeste 0 -- -- 91
2020-03-10 02:00:00 5.5 0 Calma 4 Sudoeste 0 -- -- 89
2020-03-10 01:00:00 5.8 0 Calma 3 Norte 0 -- -- 89
2020-03-10 00:00:00 6.7 3 Sur 5 Sur 0 -- -- 87
2020-03-09 23:00:00 7.3 2 Sudoeste 5 Oeste 0 -- -- 85
2020-03-09 22:00:00 7.8 3 Sur 10 Sudeste 0 -- -- 85
2020-03-09 21:00:00 9 0 Calma 7 Sudoeste 0 -- -- 81
2020-03-09 20:00:00 9.8 0 Calma 5 Sudoeste 0 -- -- 74
2020-03-09 19:00:00 11.9 4 Sur 10 Oeste 0 -- -- 65
2020-03-09 18:00:00 13.7 6 Oeste 12 Nordeste 0 -- -- 55
2020-03-09 17:00:00 14.3 3 Norte 13 Norte 0 -- -- 55
2020-03-09 16:00:00 13.9 7 Norte 15 Norte 0 -- -- 55
2020-03-09 15:00:00 14.5 5 Nordeste 20 Norte 0 -- -- 53
2020-03-09 14:00:00 13.1 5 Norte 17 Norte 0 -- -- 56
2020-03-09 13:00:00 12.1 10 Norte 19 Norte 0 -- -- 60
2020-03-09 12:00:00 11.6 10 Norte 18 Noroeste 0 -- -- 60
2020-03-09 11:00:00 10.5 4 Norte 9 Norte 0 -- -- 72
2020-03-09 10:00:00 8.1 4 Norte 9 Sudeste 0 -- -- 81
2020-03-09 09:00:00 5.8 6 Sudeste 12 Sudeste 0 -- -- 92
2020-03-09 08:00:00 4.4 5 Sur 9 Sur 0 -- -- 95
2020-03-09 07:00:00 4.7 2 Sur 5 Sur 0 -- -- 93
2020-03-09 06:00:00 5.5 0 Calma 5 Oeste 0 -- -- 90
2020-03-09 05:00:00 6.7 2 Norte 6 Oeste 0 -- -- 87
2020-03-09 04:00:00 8.3 2 Nordeste 9 Este 0 -- -- 80
2020-03-09 03:00:00 8.9 3 Sur 9 Sudeste 0 -- -- 78
2020-03-09 02:00:00 8.8 3 Este 13 Sudoeste 0 -- -- 80
2020-03-09 01:00:00 10 6 Sudoeste 20 Norte 0 -- -- 73
2020-03-09 00:00:00 11.4 4 Norte 18 Oeste 0 -- -- 57
2020-03-08 23:00:00 11 6 Oeste 20 Sudoeste 0 -- -- 72
2020-03-08 22:00:00 11.4 6 Oeste 20 Sudoeste 0 -- -- 78
2020-03-08 21:00:00 11.3 6 Oeste 24 Noroeste 0 -- -- 78
2020-03-08 20:00:00 11.7 5 Noroeste 23 Norte 0 -- -- 77
2020-03-08 19:00:00 12.5 14 Norte 31 Norte 0 -- -- 74
2020-03-08 18:00:00 16.5 7 Norte 28 Norte 0 -- -- 48
2020-03-08 17:00:00 17.9 8 Norte 20 Norte 0 -- -- 47
2020-03-08 16:00:00 18.6 13 Norte 27 Norte 0 -- -- 47
2020-03-08 15:00:00 18.5 8 Norte 15 Norte 0 -- -- 46
2020-03-08 14:00:00 17 4 Norte 10 Norte 0 -- -- 61
2020-03-08 13:00:00 14.3 3 Norte 17 Norte 0 -- -- 63
2020-03-08 12:00:00 11.2 5 Noroeste 18 Norte 0 -- -- 75
2020-03-08 11:00:00 9 6 Sudeste 12 Sudeste 0 -- -- 85
2020-03-08 10:00:00 7.9 2 Nordeste 7 Sudeste 0 -- -- 87
2020-03-08 09:00:00 6.5 4 Sur 8 Sudoeste 0 -- -- 92
2020-03-08 08:00:00 5.1 2 Sudoeste 9 Sur 0 -- -- 96
2020-03-08 07:00:00 4.3 2 Sudoeste 4 Sur 0 -- -- 98
2020-03-08 06:00:00 4 3 Norte 9 Sudeste 0 -- -- 98
2020-03-08 05:00:00 3.3 0 Calma 5 Sur 0 -- -- 99
2020-03-08 04:00:00 2.9 2 Sur 7 Sudeste 0 -- -- 98
2020-03-08 03:00:00 2.6 2 Sudoeste 6 Sur 0 -- -- 98
2020-03-08 02:00:00 3.1 3 Sur 12 Sudeste 0 -- -- 97
2020-03-08 01:00:00 3.2 2 Sudoeste 9 Sudeste 0 -- -- 96
2020-03-08 00:00:00 4 0 Calma 6 Sur 0 -- -- 95
2020-03-07 23:00:00 5.1 2 Sudoeste 6 Sudeste 0 -- -- 93
2020-03-07 22:00:00 6.3 3 Sudeste 6 Sudeste 0 -- -- 89
2020-03-07 21:00:00 7.7 0 Calma 10 Oeste 0 -- -- 85
2020-03-07 20:00:00 9.9 6 Oeste 15 Oeste 0 -- -- 78
2020-03-07 19:00:00 12 8 Sudoeste 19 Sudoeste 0 -- -- 69
2020-03-07 18:00:00 13.2 6 Noroeste 18 Noroeste 0 -- -- 63
2020-03-07 17:00:00 14.7 6 Norte 16 Norte 0 -- -- 52
2020-03-07 16:00:00 15.1 7 Norte 17 Norte 0 -- -- 53
2020-03-07 15:00:00 14.9 5 Norte 16 Norte 0 -- -- 53
2020-03-07 14:00:00 14.5 4 Sur 12 Sudeste 0 -- -- 52
2020-03-07 13:00:00 13.6 6 Sudeste 12 Sudeste 0 -- -- 54
2020-03-07 12:00:00 12.5 2 Nordeste 10 Este 0 -- -- 63
2020-03-07 11:00:00 10.6 3 Sudeste 10 Sudeste 0 -- -- 83
2020-03-07 10:00:00 8.2 4 Sudeste 10 Este 0 -- -- 97
2020-03-07 09:00:00 6.9 0 Calma 3 Sudoeste 0 -- -- 99
2020-03-07 08:00:00 6.7 0 Calma 6 Sur 0 -- -- 99
2020-03-07 07:00:00 6.5 3 Sur 9 Sudeste 0 -- -- 99
2020-03-07 06:00:00 6.4 0 Calma 2 Nordeste 0.4 -- -- 98
2020-03-07 05:00:00 6.3 0 Calma 4 Oeste 0.2 -- -- 97
2020-03-07 04:00:00 -- -- -- -- -- -- -- -- --
2020-03-07 03:00:00 6.5 0 Calma 8 Sudoeste 0 -- -- 92
2020-03-07 02:00:00 6.7 2 Norte 5 Noroeste 0 -- -- 89
2020-03-07 01:00:00 7.1 2 Este 10 Sur 0 -- -- 84
2020-03-07 00:00:00 7 2 Sur 7 Sur 0 -- -- 83
2020-03-06 23:00:00 6.9 0 Calma 8 Sudoeste 0 -- -- 82
2020-03-06 22:00:00 6.8 0 Calma 5 Oeste 0 -- -- 83
2020-03-06 21:00:00 7 2 Norte 7 Norte 0 -- -- 80
2020-03-06 20:00:00 7.4 0 Calma 10 Sudoeste 0 -- -- 78
2020-03-06 19:00:00 8.1 5 Noroeste 17 Sudoeste 0 -- -- 74
2020-03-06 18:00:00 8.2 6 Oeste 27 Norte 0 -- -- 69
2020-03-06 17:00:00 9.4 14 Norte 32 Norte 0 -- -- 55
2020-03-06 16:00:00 8.9 4 Nordeste 31 Norte 0.2 -- -- 71
2020-03-06 15:00:00 8.5 16 Norte 34 Norte 0 -- -- 70
2020-03-06 14:00:00 7.3 10 Sudoeste 32 Norte 0 -- -- 77
2020-03-06 13:00:00 6.7 4 Sur 12 Oeste 0.2 -- -- 81
2020-03-06 12:00:00 5.4 4 Norte 38 Norte 0.8 -- -- 90
2020-03-06 11:00:00 7.2 14 Norte 45 Norte 0.2 -- -- 72
2020-03-06 10:00:00 5.1 4 Nordeste 16 Noroeste 1.4 -- -- 88
2020-03-06 09:00:00 4.8 3 Nordeste 25 Norte 1.6 -- -- 88
2020-03-06 08:00:00 5 0 Calma 23 Nordeste 1.2 -- -- 91
2020-03-06 07:00:00 5.6 3 Oeste 14 Sudoeste 0.2 -- -- 85
2020-03-06 06:00:00 5.7 4 Sudoeste 31 Sur 0.4 -- -- 86
2020-03-06 05:00:00 6.1 2 Sudoeste 19 Nordeste 0 -- -- 81
2020-03-06 04:00:00 6.2 6 Sur 16 Sur 0.4 -- -- 90
2020-03-06 03:00:00 6.4 4 Sudeste 17 Oeste 1 -- -- 96
2020-03-06 02:00:00 6.5 5 Noroeste 14 Noroeste 0.8 -- -- 94
2020-03-06 01:00:00 6.4 0 Calma 8 Sur 0 -- -- 92
2020-03-06 00:00:00 6.2 0 Calma 15 Sudeste 0 -- -- 92
2020-03-05 23:00:00 6.5 9 Sudeste 17 Sudeste 0 -- -- 90
2020-03-05 22:00:00 6.5 4 Sur 10 Sudeste 0 -- -- 93
2020-03-05 21:00:00 7.2 6 Sudeste 13 Este 0.2 -- -- 95
2020-03-05 20:00:00 7.8 2 Sur 7 Noroeste 0 -- -- 94
2020-03-05 19:00:00 8.4 2 Sudoeste 14 Norte 1 -- -- 92
2020-03-05 18:00:00 9.4 6 Sudoeste 10 Sudoeste 0.6 -- -- 83
2020-03-05 17:00:00 9.6 7 Noroeste 20 Norte 0.6 -- -- 82
2020-03-05 16:00:00 10.5 5 Noroeste 20 Norte 0.4 -- -- 82
2020-03-05 15:00:00 11.5 16 Norte 32 Oeste 0.2 -- -- 67
2020-03-05 14:00:00 11 6 Norte 26 Norte 0 -- -- 72
2020-03-05 13:00:00 12.5 8 Norte 39 Norte 0 -- -- 66
2020-03-05 12:00:00 14.6 13 Noroeste 49 Sudoeste 0 -- -- 51
2020-03-05 11:00:00 14.5 10 Noroeste 49 Sudoeste 0 -- -- 44
2020-03-05 10:00:00 13.2 9 Nordeste 22 Nordeste 0 -- -- 57
2020-03-05 09:00:00 11.1 7 Oeste 30 Norte 0.2 -- -- 70
2020-03-05 08:00:00 11.1 5 Oeste 17 Sudoeste 0.6 -- -- 82
2020-03-05 07:00:00 12.7 5 Oeste 31 Norte 1.4 -- -- 89
2020-03-05 06:00:00 16 10 Sur 25 Sudeste 0 -- -- 63
2020-03-05 05:00:00 16.8 13 Sudeste 35 Sudeste 0 -- -- 59
2020-03-05 04:00:00 17.1 13 Sur 27 Sur 0 -- -- 58
2020-03-05 03:00:00 17.3 13 Sur 40 Sudeste 0 -- -- 58
2020-03-05 02:00:00 17.2 11 Sur 40 Sudeste 0 -- -- 56
2020-03-05 01:00:00 17.6 12 Sur 31 Este 0 -- -- 58
2020-03-05 00:00:00 17.7 13 Sudeste 32 Sur 0 -- -- 57
2020-03-04 23:00:00 17.8 14 Sudoeste 23 Sudoeste 0 -- -- 55
2020-03-04 22:00:00 17.4 8 Sur 23 Sudoeste 0 -- -- 57
2020-03-04 21:00:00 17.5 10 Sur 28 Sur 0 -- -- 57
2020-03-04 20:00:00 17.3 10 Sur 19 Sur 0 -- -- 54
2020-03-04 19:00:00 17.4 10 Sur 21 Sur 0 -- -- 50
2020-03-04 18:00:00 18.7 8 Sur 31 Sur 0 -- -- 51
2020-03-04 17:00:00 19.9 13 Sudeste 25 Sudeste 0 -- -- 45
2020-03-04 16:00:00 20.6 15 Sur 29 Sur 0 -- -- 43
2020-03-04 15:00:00 20.6 8 Sur 28 Sudeste 0 -- -- 48
2020-03-04 14:00:00 20.9 13 Sudeste 36 Sudeste 0 -- -- 50
2020-03-04 13:00:00 20.6 16 Sudeste 28 Sudeste 0.2 -- -- 51
2020-03-04 12:00:00 18.4 3 Este 13 Sudeste 0 -- -- 72
2020-03-04 11:00:00 15.8 10 Sudeste 15 Sudeste 0 -- -- 73
2020-03-04 10:00:00 11.2 3 Este 13 Sudeste 0 -- -- 95
2020-03-04 09:00:00 8 3 Sudeste 7 Sudeste 0 -- -- 100
2020-03-04 08:00:00 7.1 2 Oeste 8 Oeste 0 -- -- 99
2020-03-04 07:00:00 7.7 2 Sudeste 6 Sudeste 0 -- -- 98
2020-03-04 06:00:00 8.1 0 Calma 5 Norte 0 -- -- 98
2020-03-04 05:00:00 8.8 2 Noroeste 8 Sudeste 0 -- -- 96
2020-03-04 04:00:00 9.4 0 Calma 8 Oeste 0 -- -- 97
2020-03-04 03:00:00 9.5 4 Sudoeste 9 Sur 0 -- -- 96
2020-03-04 02:00:00 9.4 4 Sur 8 Sudeste 0 -- -- 96
2020-03-04 01:00:00 9.9 5 Sur 12 Sudeste 0.6 -- -- 92
2020-03-04 00:00:00 10.3 9 Sudeste 16 Sudeste 0 -- -- 91
2020-03-03 23:00:00 10.3 8 Sudeste 17 Sudeste 0.4 -- -- 92
2020-03-03 22:00:00 11.2 0 Calma 9 Norte 0.2 -- -- 91
2020-03-03 21:00:00 12 3 Oeste 10 Nordeste 0 -- -- 86
2020-03-03 20:00:00 12.3 5 Sur 10 Oeste 0 -- -- 85
2020-03-03 19:00:00 13 8 Oeste 18 Nordeste 0 -- -- 81
2020-03-03 18:00:00 14.5 6 Sudoeste 31 Norte 0 -- -- 73
2020-03-03 17:00:00 17.5 12 Norte 32 Norte 0 -- -- 42
2020-03-03 16:00:00 18.1 6 Norte 49 Norte 0 -- -- 42
2020-03-03 15:00:00 18.7 9 Norte 44 Norte 0 -- -- 39
2020-03-03 14:00:00 19.8 13 Noroeste 39 Sudoeste 0 -- -- 39
2020-03-03 13:00:00 19.9 13 Noroeste 52 Oeste 0 -- -- 35
2020-03-03 12:00:00 20.5 11 Norte 38 Oeste 0 -- -- 40
2020-03-03 11:00:00 19.6 10 Sudeste 44 Noroeste 0.2 -- -- 41
2020-03-03 10:00:00 17.5 13 Norte 34 Nordeste 0 -- -- 53
2020-03-03 09:00:00 12.3 17 Sudeste 33 Sur 0 -- -- 70
2020-03-03 08:00:00 11.2 15 Sudeste 36 Sudeste 0 -- -- 72
2020-03-03 07:00:00 11.4 20 Sur 34 Sudeste 0.2 -- -- 67
2020-03-03 06:00:00 6.6 3 Sudeste 15 Noroeste 0.4 -- -- 95
2020-03-03 05:00:00 7.8 4 Sudeste 23 Sur 0.8 -- -- 86
2020-03-03 04:00:00 7.5 8 Sudeste 19 Sudeste 0.2 -- -- 80
2020-03-03 03:00:00 6.5 7 Sudeste 16 Sudeste 0 -- -- 82
2020-03-03 02:00:00 5.3 0 Calma 6 Sudeste 0 -- -- 88
2020-03-03 01:00:00 5.2 3 Este 16 Este 0 -- -- 86
2020-03-03 00:00:00 5.2 10 Sudeste 18 Sudeste 0 -- -- 85
2020-03-02 23:00:00 4.9 5 Sur 15 Sudeste 0 -- -- 89
2020-03-02 22:00:00 4.9 5 Sudeste 11 Este 0 -- -- 90
2020-03-02 21:00:00 5.2 3 Sur 12 Sudeste 0 -- -- 90
2020-03-02 20:00:00 5.3 2 Sudeste 14 Sudeste 0 -- -- 87
2020-03-02 19:00:00 5.8 6 Sudeste 13 Sudoeste 0 -- -- 87
2020-03-02 18:00:00 6 5 Sur 19 Sudoeste 0.6 -- -- 85
2020-03-02 17:00:00 7.6 12 Oeste 29 Sudoeste 0 -- -- 69
2020-03-02 16:00:00 8 4 Sudoeste 18 Sur 0.6 -- -- 74
2020-03-02 15:00:00 7.5 6 Noroeste 23 Norte 0 -- -- 71
2020-03-02 14:00:00 8.4 15 Norte 43 Sudoeste 0 -- -- 62
2020-03-02 13:00:00 7.6 8 Sudeste 30 Norte 0.2 -- -- 74
2020-03-02 12:00:00 6.7 9 Este 23 Norte 1.4 -- -- 81
2020-03-02 11:00:00 6 10 Norte 24 Norte 0.2 -- -- 85
2020-03-02 10:00:00 6.2 0 Calma 26 Norte 0 -- -- 86
2020-03-02 09:00:00 5.5 5 Sur 13 Sudeste 0 -- -- 93
2020-03-02 08:00:00 5.8 3 Norte 24 Norte 0.8 -- -- 90
2020-03-02 07:00:00 6.7 5 Noroeste 13 Norte 0.6 -- -- 83
2020-03-02 06:00:00 7.3 4 Norte 41 Norte 1.8 -- -- 87
2020-03-02 05:00:00 8.4 9 Norte 25 Norte 1.2 -- -- 91
2020-03-02 04:00:00 8.4 3 Sur 12 Sudoeste 2.8 -- -- 97
2020-03-02 03:00:00 8.3 5 Sudoeste 36 Norte 6.4 -- -- 95
2020-03-02 02:00:00 9.1 4 Norte 14 Sudeste 0.8 -- -- 92
2020-03-02 01:00:00 9.7 9 Sur 23 Sur 0.6 -- -- 87
2020-03-02 00:00:00 10.1 11 Sur 25 Sur 0.4 -- -- 79
2020-03-01 23:00:00 11.3 14 Sur 34 Sur 0 -- -- 72
2020-03-01 22:00:00 12.4 13 Sur 28 Sudeste 0 -- -- 64
2020-03-01 21:00:00 14.4 15 Sur 33 Sudeste 0 -- -- 52
2020-03-01 20:00:00 14.5 8 Sur 18 Sur 0 -- -- 50
2020-03-01 19:00:00 14.9 6 Sur 38 Sudeste 0 -- -- 51
2020-03-01 18:00:00 15.8 13 Sudeste 35 Sudeste 0 -- -- 42
2020-03-01 17:00:00 16.4 15 Sudeste 42 Sur 0 -- -- 37
2020-03-01 16:00:00 17.2 19 Sur 42 Sudeste 0 -- -- 37
2020-03-01 15:00:00 18.1 17 Sur 39 Sudeste 0 -- -- 31
2020-03-01 14:00:00 18.9 13 Sudeste 33 Este 0 -- -- 33
2020-03-01 13:00:00 17.4 17 Sudeste 33 Sudeste 0 -- -- 38
2020-03-01 12:00:00 16.4 12 Sudeste 25 Sudeste 0 -- -- 41
2020-03-01 11:00:00 14.8 10 Sudeste 23 Sudeste 0 -- -- 43
2020-03-01 10:00:00 12.2 4 Nordeste 21 Sudeste 0 -- -- 62
2020-03-01 09:00:00 8.5 6 Sur 14 Sudoeste 0 -- -- 83
2020-03-01 08:00:00 8 7 Sudeste 24 Sur 0.4 -- -- 88
2020-03-01 07:00:00 9 10 Sur 23 Sur 2 -- -- 84
2020-03-01 06:00:00 11.6 11 Oeste 49 Sur 1.2 -- -- 71
2020-03-01 05:00:00 11 15 Sur 33 Sudeste 0 -- -- 64
2020-03-01 04:00:00 11.6 13 Sur 32 Sudeste 0 -- -- 56
2020-03-01 03:00:00 11.2 14 Sur 32 Sur 0 -- -- 56
2020-03-01 02:00:00 6.1 4 Sur 13 Sur 0 -- -- 76
2020-03-01 01:00:00 6.5 4 Este 9 Este 0 -- -- 76
2020-03-01 00:00:00 7.7 2 Oeste 10 Norte 0 -- -- 69
2020-02-29 23:00:00 9.9 6 Norte 18 Sudeste 0 -- -- 62
2020-02-29 22:00:00 11.3 9 Sur 19 Sur 0 -- -- 51
2020-02-29 21:00:00 11.5 11 Sur 23 Sur 0 -- -- 47
2020-02-29 20:00:00 11.9 10 Sur 27 Sur 0 -- -- 46
2020-02-29 19:00:00 13 12 Sur 30 Sudeste 0 -- -- 46
2020-02-29 18:00:00 14 11 Sur 31 Sudeste 0 -- -- 49
2020-02-29 17:00:00 15 10 Sur 30 Sudeste 0 -- -- 44
2020-02-29 16:00:00 15.2 11 Sudeste 30 Sudeste 0 -- -- 42
2020-02-29 15:00:00 15.5 13 Sur 32 Sudeste 0 -- -- 41
2020-02-29 14:00:00 15.8 12 Sudeste 32 Sudeste 0 -- -- 43
2020-02-29 13:00:00 17.1 12 Sudeste 22 Sur 0 -- -- 35
2020-02-29 12:00:00 15.6 12 Sudeste 27 Sudeste 0 -- -- 42
2020-02-29 11:00:00 14 3 Noroeste 17 Norte 0 -- -- 66
2020-02-29 10:00:00 13.1 4 Nordeste 14 Sudoeste 0 -- -- 74
2020-02-29 09:00:00 11.9 4 Noroeste 10 Oeste 0 -- -- 76
2020-02-29 08:00:00 12.7 4 Oeste 20 Sur 0 -- -- 72
2020-02-29 07:00:00 13.8 10 Sur 31 Este 0 -- -- 59
2020-02-29 06:00:00 14 13 Sudeste 34 Sudeste 0 -- -- 58
2020-02-29 05:00:00 15.1 15 Sur 38 Sudeste 0 -- -- 49
2020-02-29 04:00:00 14.1 13 Sudeste 51 Este 0 -- -- 46
2020-02-29 03:00:00 15.5 20 Sudeste 42 Sur 0 -- -- 35
2020-02-29 02:00:00 15.4 10 Sudeste 43 Sudeste 0 -- -- 33
2020-02-29 01:00:00 16.2 23 Sudeste 44 Sudeste 0 -- -- 33
2020-02-29 00:00:00 16.1 16 Sudeste 37 Sudeste 0 -- -- 34
2020-02-28 23:00:00 16.5 14 Sur 30 Sudeste 0 -- -- 32
2020-02-28 22:00:00 16.6 12 Sur 25 Sudeste 0 -- -- 32
2020-02-28 21:00:00 16.6 10 Sur 23 Sur 0 -- -- 33
2020-02-28 20:00:00 17 10 Sur 20 Sur 0 -- -- 34
2020-02-28 19:00:00 17.3 6 Sur 19 Sudeste 0 -- -- 37
2020-02-28 18:00:00 19.1 13 Sur 30 Sudeste 0 -- -- 32
2020-02-28 17:00:00 19.4 13 Sur 41 Sudeste 0 -- -- 31
2020-02-28 16:00:00 20.3 15 Sur 41 Sudeste 0 -- -- 27
2020-02-28 15:00:00 18 9 Norte 19 Norte 0 -- -- 33
2020-02-28 14:00:00 16.8 6 Norte 13 Norte 0 -- -- 39
2020-02-28 13:00:00 14.7 6 Norte 11 Noroeste 0 -- -- 45
2020-02-28 12:00:00 13.1 4 Norte 9 Norte 0 -- -- 54
2020-02-28 11:00:00 10.6 4 Norte 8 Norte 0 -- -- 63
2020-02-28 10:00:00 7.7 6 Sudeste 15 Sur 0 -- -- 68
2020-02-28 09:00:00 4.1 0 Calma 5 Sudeste 0 -- -- 83
2020-02-28 08:00:00 4.1 0 Calma 5 Sudeste 0 -- -- 79
2020-02-28 07:00:00 4.3 0 Calma 3 Sudoeste 0 -- -- 81
2020-02-28 06:00:00 4.5 2 Sudoeste 9 Sudeste 0 -- -- 79
2020-02-28 05:00:00 4.7 0 Calma 14 Sudeste 0 -- -- 80
2020-02-28 04:00:00 5.6 8 Sur 14 Sur 0 -- -- 81
2020-02-28 03:00:00 6.4 0 Calma 9 Sudeste 0 -- -- 80
2020-02-28 02:00:00 7.5 2 Sudoeste 8 Sur 0 -- -- 79
2020-02-28 01:00:00 8.6 2 Sudoeste 8 Sudeste 0 -- -- 79
2020-02-28 00:00:00 9.9 0 Calma 8 Sudeste 0 -- -- 79